Terminal Aerodrome Forecast
Issued by NWS Lake Charles, LA

Home | Current Version | Previous Version | Text Only | Print | Product List | Glossary On
Versions: 1 2 3 4 5 6 7 8 9 10 11 12 13 14 15 16 17 18 19 20 21 22 23
888
FTUS44 KLCH 071733
TAFAEX
TAF
KAEX 071733Z 0718/0818 09005KT P6SM OVC007
      TEMPO 0718/0722 OVC011
     FM080200 02008KT P6SM OVC008
      TEMPO 0809/0813 5SM -RA BR
     FM081500 01015KT P6SM OVC015=

USA.gov is the U.S. government's official web portal to all federal, state and local government web resources and services.